OJAI/AMM METAR and TAF weather

Enter ICAO airport designator
Station Type Date Time Source
OJAI METAR 2021/08/04 19:00 UTC NOAA

OJAI 041900Z 29008KT 5000 HZ NSC 28/11 Q1014 NOSIG


Station Type Date Time Source
OJAI Decoded METAR 2021/08/04 19:00 UTC NOAA

Queen Alia Airport, Jordan (OJAI) 31-40N 035-58E
Aug 04, 2021 - 03:00 PM EDT / 2021.08.04 1900 UTC
Wind: from the WNW (290 degrees) at 9 MPH (8 KT):0
Visibility: 3 mile(s):0
Weather: haze
Temperature: 82 F (28 C)
Dew Point: 51 F (11 C)
Relative Humidity: 34%
Pressure (altimeter): 29.94 in. Hg (1014 hPa)
ob: OJAI 041900Z 29008KT 5000 HZ NSC 28/11 Q1014 NOSIG
cycle: 19

Station Type Date Time Source
OJAI TAF 2021/08/04 18:15 UTC NOAA

TAF TAF OJAI 041700Z 0418/0524 28012KT 5000 HZ NSC

Example: see airport list